Time;durP1;ratioP1;P1;durP2;ratioP2;P2;SDS_P1;SDS_P2;PMS_P1;PMS_P2;Temp;Humidity;BMP_temperature;BMP_pressure;BME280_temperature;BME280_humidity;BME280_pressure;Samples;Min_cycle;Max_cycle;Signal;HPM_P1;HPM_P2
2023/07/27 00:02:12;;;;;;;4.70;2.95;;;;;;;12.59;100.00;93653.00;5048805;28;20022;-66
2023/07/27 00:04:38;;;;;;;3.65;2.80;;;;;;;12.57;100.00;93639.19;5021847;28;20032;-66
2023/07/27 00:07:03;;;;;;;3.08;2.80;;;;;;;12.56;100.00;93614.63;5048876;28;20025;-66
2023/07/27 00:09:29;;;;;;;2.72;2.53;;;;;;;12.52;100.00;93613.44;5021119;28;20033;-65
2023/07/27 00:11:55;;;;;;;6.03;2.90;;;;;;;12.51;100.00;93625.00;5017266;28;20025;-66
2023/07/27 00:14:21;;;;;;;3.20;2.95;;;;;;;12.46;100.00;93616.88;5018470;28;20013;-66
2023/07/27 00:16:46;;;;;;;3.22;2.95;;;;;;;12.45;100.00;93631.06;5018164;28;20032;-66
2023/07/27 00:19:11;;;;;;;8.82;3.10;;;;;;;12.45;100.00;93610.78;5020474;28;20571;-65
2023/07/27 00:21:37;;;;;;;3.22;3.03;;;;;;;12.48;100.00;93614.81;5021819;28;20025;-66
2023/07/27 00:24:02;;;;;;;3.85;3.10;;;;;;;12.36;100.00;93609.34;5020416;28;20049;-66
2023/07/27 00:26:28;;;;;;;2.97;2.80;;;;;;;12.40;100.00;93613.25;5053318;28;20048;-65
2023/07/27 00:28:53;;;;;;;3.17;2.85;;;;;;;12.42;100.00;93595.38;5017478;28;20026;-66
2023/07/27 00:31:19;;;;;;;3.25;2.83;;;;;;;12.38;100.00;93602.06;5015833;28;20029;-65
2023/07/27 00:33:44;;;;;;;3.50;3.20;;;;;;;12.34;100.00;93595.56;5021682;28;20018;-66
2023/07/27 00:36:09;;;;;;;2.85;2.65;;;;;;;12.33;100.00;93588.66;5022481;28;20037;-65
2023/07/27 00:38:35;;;;;;;3.38;3.15;;;;;;;12.33;100.00;93580.75;5049220;28;20089;-65
2023/07/27 00:41:00;;;;;;;3.83;3.28;;;;;;;12.32;100.00;93574.69;5017969;28;20022;-66
2023/07/27 00:43:26;;;;;;;3.65;3.35;;;;;;;12.37;100.00;93562.69;5019954;28;20100;-65
2023/07/27 00:45:51;;;;;;;3.22;2.97;;;;;;;12.31;100.00;93562.50;5016220;28;20083;-65
2023/07/27 00:48:18;;;;;;;4.10;2.90;;;;;;;12.25;100.00;93536.91;5018286;28;20076;-65
2023/07/27 00:50:45;;;;;;;3.50;3.22;;;;;;;12.25;100.00;93499.97;5022363;28;20052;-66
2023/07/27 00:53:11;;;;;;;2.92;2.78;;;;;;;12.20;100.00;93493.72;5014667;28;20029;-65
2023/07/27 00:55:37;;;;;;;3.88;2.83;;;;;;;12.15;100.00;93491.69;5047771;28;20018;-65
2023/07/27 00:58:03;;;;;;;3.30;3.00;;;;;;;12.15;100.00;93502.25;5020023;28;20029;-65
2023/07/27 01:00:30;;;;;;;3.55;3.25;;;;;;;12.10;100.00;93500.22;5015914;28;20030;-65
2023/07/27 01:02:56;;;;;;;3.22;3.03;;;;;;;12.12;100.00;93468.38;5018055;28;20021;-65
2023/07/27 01:05:22;;;;;;;3.40;3.10;;;;;;;12.11;100.00;93440.38;5015662;28;20033;-66
2023/07/27 01:07:48;;;;;;;3.08;2.88;;;;;;;12.03;100.00;93410.56;5015156;28;20044;-65
2023/07/27 01:10:13;;;;;;;2.92;2.65;;;;;;;11.98;100.00;93207.31;5021893;28;20025;-65
2023/07/27 01:12:49;;;;;;;2.88;2.67;;;;;;;11.96;100.00;93248.91;5027466;28;20487;-65
2023/07/27 01:15:17;;;;;;;3.20;3.00;;;;;;;11.96;100.00;93241.00;5017780;28;20061;-65
2023/07/27 01:18:01;;;;;;;3.67;3.20;;;;;;;11.99;100.00;93242.41;5014024;28;20466;-66
2023/07/27 01:20:32;;;;;;;3.35;3.00;;;;;;;11.98;100.00;93231.03;5019539;28;20017;-65
2023/07/27 01:23:29;;;;;;;2.83;2.70;;;;;;;11.98;100.00;93224.97;5020812;28;20033;-65
2023/07/27 01:26:25;;;;;;;3.22;2.88;;;;;;;11.98;100.00;93209.94;5025176;28;20026;-65
2023/07/27 01:29:27;;;;;;;3.28;3.08;;;;;;;11.90;100.00;93224.19;5015018;28;20042;-66
2023/07/27 01:31:53;;;;;;;5.30;3.05;;;;;;;11.93;100.00;93222.97;5018183;28;20033;-66
2023/07/27 01:34:29;;;;;;;4.32;3.92;;;;;;;11.86;100.00;93228.25;5019862;28;20030;-66
2023/07/27 01:36:59;;;;;;;3.17;2.97;;;;;;;11.90;100.00;93224.19;5021717;28;20440;-65
2023/07/27 01:39:27;;;;;;;3.35;3.15;;;;;;;11.94;100.00;93216.66;5016538;28;20110;-66
2023/07/27 01:41:54;;;;;;;3.20;2.95;;;;;;;11.88;100.00;93223.56;5020693;28;20030;-65
2023/07/27 01:44:22;;;;;;;4.10;3.00;;;;;;;11.90;100.00;93208.34;5020194;28;20140;-66
2023/07/27 01:46:50;;;;;;;3.72;3.25;;;;;;;11.92;100.00;93200.25;5015310;28;20513;-65
2023/07/27 01:49:17;;;;;;;2.90;2.70;;;;;;;11.88;100.00;93214.88;5019502;28;20079;-66
2023/07/27 01:51:44;;;;;;;3.17;2.97;;;;;;;11.85;100.00;93202.13;5015197;28;20391;-65
2023/07/27 01:54:11;;;;;;;3.63;3.20;;;;;;;11.77;100.00;93211.06;5041712;28;20048;-66
2023/07/27 01:56:37;;;;;;;2.90;2.70;;;;;;;11.72;100.00;93177.44;5023528;28;20104;-66
2023/07/27 01:59:03;;;;;;;4.35;2.97;;;;;;;11.75;100.00;93173.59;5022901;28;20037;-65
2023/07/27 02:01:29;;;;;;;3.60;3.30;;;;;;;11.72;100.00;93177.44;5035323;28;20037;-65
2023/07/27 02:03:55;;;;;;;3.70;3.40;;;;;;;11.69;100.00;93169.13;5019670;28;20036;-66
2023/07/27 02:06:20;;;;;;;3.65;3.42;;;;;;;11.65;100.00;93157.41;5015105;28;20030;-65
2023/07/27 02:08:46;;;;;;;3.72;3.08;;;;;;;11.64;100.00;93153.16;5021363;28;20501;-65
2023/07/27 02:11:13;;;;;;;3.28;2.97;;;;;;;11.59;100.00;93162.50;5018579;28;20042;-66
2023/07/27 02:13:43;;;;;;;4.45;3.40;;;;;;;11.59;100.00;93143.22;5022361;28;20025;-66
2023/07/27 02:16:19;;;;;;;3.67;3.03;;;;;;;11.55;100.00;93163.13;5022316;28;20165;-65
2023/07/27 02:18:48;;;;;;;4.75;3.28;;;;;;;11.53;100.00;93158.06;5020279;28;20600;-65
2023/07/27 02:21:14;;;;;;;4.60;3.38;;;;;;;11.58;100.00;93146.88;5042836;28;20033;-65
2023/07/27 02:23:41;;;;;;;4.10;3.70;;;;;;;11.59;100.00;93132.69;5018317;28;20030;-66
2023/07/27 02:26:06;;;;;;;3.33;3.13;;;;;;;11.53;100.00;93139.63;5021005;28;20040;-66
2023/07/27 02:28:33;;;;;;;3.80;3.60;;;;;;;11.53;100.00;93128.28;5023602;28;20037;-65
2023/07/27 02:30:58;;;;;;;5.18;3.50;;;;;;;11.56;100.00;93099.69;5014718;28;20030;-65
2023/07/27 02:33:24;;;;;;;4.38;3.33;;;;;;;11.52;100.00;93106.41;5016437;28;20076;-65
2023/07/27 02:35:49;;;;;;;3.53;3.30;;;;;;;11.50;100.00;93123.44;5025835;28;20029;-65
2023/07/27 02:38:15;;;;;;;4.75;3.28;;;;;;;11.44;100.00;93125.91;5022835;28;20040;-66
2023/07/27 02:40:42;;;;;;;3.97;3.58;;;;;;;11.39;100.00;93140.72;5026194;28;20053;-66
2023/07/27 02:43:07;;;;;;;3.75;3.10;;;;;;;11.31;100.00;93152.28;5038933;28;20080;-66
2023/07/27 02:45:33;;;;;;;3.35;3.15;;;;;;;11.31;100.00;93139.94;5034822;28;20025;-65
2023/07/27 02:47:58;;;;;;;4.25;3.70;;;;;;;11.34;100.00;93128.16;5018964;28;20041;-66
2023/07/27 02:50:24;;;;;;;3.47;3.20;;;;;;;11.36;100.00;93115.56;5022977;28;20063;-66
2023/07/27 02:52:49;;;;;;;4.30;3.40;;;;;;;11.39;100.00;93106.47;5023672;28;20052;-65
2023/07/27 02:55:15;;;;;;;3.40;3.10;;;;;;;11.34;100.00;93143.97;5022861;28;20036;-66
2023/07/27 02:57:40;;;;;;;3.58;3.38;;;;;;;11.29;100.00;93135.88;5021192;28;20486;-66
2023/07/27 03:00:08;;;;;;;3.45;3.17;;;;;;;11.26;100.00;93137.09;5025822;28;20502;-66
2023/07/27 03:02:33;;;;;;;3.53;3.22;;;;;;;11.23;100.00;93150.69;5026740;28;21633;-65
2023/07/27 03:05:01;;;;;;;4.03;3.72;;;;;;;11.24;100.00;93143.59;5026143;28;20375;-65
2023/07/27 03:07:26;;;;;;;3.25;3.03;;;;;;;11.29;100.00;93143.78;5024827;28;20558;-65
2023/07/27 03:09:52;;;;;;;3.17;2.97;;;;;;;11.26;100.00;93126.56;5023281;28;20115;-66
2023/07/27 03:12:17;;;;;;;3.85;3.53;;;;;;;11.21;100.00;93146.66;5022093;28;20038;-65
2023/07/27 03:14:42;;;;;;;3.03;2.90;;;;;;;11.18;100.00;93153.13;5025737;28;20390;-65
2023/07/27 03:17:08;;;;;;;3.88;3.58;;;;;;;11.15;100.00;93154.34;5024238;28;20017;-66
2023/07/27 03:19:34;;;;;;;3.70;3.40;;;;;;;11.14;100.00;93167.75;5022747;28;20107;-66
2023/07/27 03:21:59;;;;;;;3.83;3.20;;;;;;;11.12;100.00;93175.84;5043627;28;20216;-66
2023/07/27 03:24:25;;;;;;;3.33;3.08;;;;;;;11.03;100.00;93161.28;5023681;28;20717;-66
2023/07/27 03:26:50;;;;;;;3.85;3.40;;;;;;;11.06;100.00;93146.91;5025359;28;20041;-65
2023/07/27 03:29:16;;;;;;;3.50;3.22;;;;;;;11.11;100.00;93121.56;5019846;28;20049;-65
2023/07/27 03:31:42;;;;;;;3.90;3.60;;;;;;;11.08;100.00;93127.25;5022787;28;20529;-66
2023/07/27 03:34:08;;;;;;;3.28;2.97;;;;;;;11.04;100.00;93141.84;5027752;28;20109;-66
2023/07/27 03:36:33;;;;;;;3.42;3.22;;;;;;;10.99;100.00;93160.09;5025190;28;20057;-66
2023/07/27 03:38:59;;;;;;;3.55;3.25;;;;;;;11.00;100.00;93161.72;5023935;28;20478;-66
2023/07/27 03:41:24;;;;;;;3.70;3.50;;;;;;;10.99;100.00;93171.41;5027791;28;20021;-66
2023/07/27 03:43:49;;;;;;;4.05;3.75;;;;;;;10.96;100.00;93192.09;5024818;28;20025;-65
2023/07/27 03:46:15;;;;;;;4.10;3.70;;;;;;;10.92;100.00;93193.50;5021506;28;20033;-65
2023/07/27 03:48:40;;;;;;;3.70;3.40;;;;;;;10.88;100.00;93178.13;5021427;28;20061;-65
2023/07/27 03:51:05;;;;;;;4.43;4.05;;;;;;;10.88;100.00;93169.44;5024521;28;20017;-65
2023/07/27 03:53:31;;;;;;;3.53;3.28;;;;;;;10.84;100.00;93169.03;5023231;28;20033;-65
2023/07/27 03:55:56;;;;;;;3.85;3.53;;;;;;;10.82;100.00;93180.75;5015958;28;20024;-66
2023/07/27 03:58:22;;;;;;;3.83;3.53;;;;;;;10.77;100.00;93186.66;5023365;28;20117;-66
2023/07/27 04:00:48;;;;;;;3.67;3.47;;;;;;;10.73;100.00;93177.56;5026185;28;20040;-66
2023/07/27 04:03:13;;;;;;;4.85;3.67;;;;;;;10.78;100.00;93163.78;5021367;28;20026;-66
2023/07/27 04:05:39;;;;;;;10.30;3.85;;;;;;;10.78;100.00;93154.06;5024901;28;20029;-66
2023/07/27 04:08:04;;;;;;;3.60;3.30;;;;;;;10.77;100.00;93152.44;5024209;28;20604;-65
2023/07/27 04:10:30;;;;;;;5.28;3.58;;;;;;;10.79;100.00;93146.97;5022678;28;20168;-65
2023/07/27 04:12:57;;;;;;;3.30;3.00;;;;;;;10.81;100.00;93140.50;5022091;28;20033;-65
2023/07/27 04:15:23;;;;;;;4.00;3.70;;;;;;;10.83;100.00;93129.75;5021177;28;20049;-65
2023/07/27 04:17:48;;;;;;;3.78;3.47;;;;;;;10.77;100.00;93155.06;5022146;28;20078;-65
2023/07/27 04:20:14;;;;;;;4.97;3.20;;;;;;;10.75;100.00;93173.69;5020919;28;20384;-65
2023/07/27 04:22:39;;;;;;;3.95;3.65;;;;;;;10.71;100.00;93192.72;5017529;28;20422;-66
2023/07/27 04:25:05;;;;;;;5.65;3.80;;;;;;;10.70;100.00;93199.00;5044162;28;20034;-65
2023/07/27 04:27:31;;;;;;;3.83;3.58;;;;;;;10.69;100.00;93208.72;5021786;28;20046;-65
2023/07/27 04:29:56;;;;;;;3.92;3.63;;;;;;;10.63;100.00;93245.56;5014653;28;20108;-65
2023/07/27 04:32:21;;;;;;;4.50;4.10;;;;;;;10.64;100.00;93249.81;5021032;28;20034;-66
2023/07/27 04:34:47;;;;;;;4.88;4.43;;;;;;;10.63;100.00;93254.28;5043669;28;20101;-65
2023/07/27 04:37:12;;;;;;;3.75;3.45;;;;;;;10.63;100.00;93251.66;5021312;28;20025;-65
2023/07/27 04:39:37;;;;;;;8.25;4.03;;;;;;;10.67;100.00;93252.84;5042518;28;20034;-65
2023/07/27 04:42:03;;;;;;;6.10;3.78;;;;;;;10.69;100.00;93245.56;5021058;28;20018;-66
2023/07/27 04:44:28;;;;;;;4.15;3.20;;;;;;;10.72;100.00;93246.97;5019738;28;20037;-65
2023/07/27 04:46:54;;;;;;;5.07;3.70;;;;;;;10.72;100.00;93239.91;5017137;28;20121;-65
2023/07/27 04:49:19;;;;;;;4.90;4.43;;;;;;;10.69;100.00;93240.31;5024176;28;20028;-65
2023/07/27 04:51:45;;;;;;;4.97;3.92;;;;;;;10.70;100.00;93252.44;5021021;28;20064;-66
2023/07/27 04:54:10;;;;;;;5.97;3.95;;;;;;;10.72;100.00;93260.13;5019897;28;20030;-65
2023/07/27 04:56:36;;;;;;;5.15;4.35;;;;;;;10.73;100.00;93281.00;5022432;28;20083;-66
2023/07/27 04:59:01;;;;;;;4.88;4.47;;;;;;;10.81;100.00;93268.63;5025258;28;20028;-65
2023/07/27 05:01:26;;;;;;;6.78;6.03;;;;;;;10.80;100.00;93293.31;5020809;28;20074;-65
2023/07/27 05:03:52;;;;;;;9.18;7.50;;;;;;;10.80;100.00;93307.31;5022329;28;20030;-65
2023/07/27 05:06:17;;;;;;;4.43;4.13;;;;;;;10.85;100.00;93311.97;5020387;28;20109;-66
2023/07/27 05:08:43;;;;;;;4.57;4.25;;;;;;;10.80;100.00;93322.28;5019733;28;20021;-66
2023/07/27 05:11:08;;;;;;;4.30;4.00;;;;;;;10.80;100.00;93331.00;5017197;28;20039;-65
2023/07/27 05:13:34;;;;;;;4.40;4.10;;;;;;;10.83;100.00;93322.69;5021927;28;20024;-65
2023/07/27 05:16:01;;;;;;;4.70;4.15;;;;;;;10.81;100.00;93327.34;5022253;28;20108;-65
2023/07/27 05:18:27;;;;;;;4.22;3.83;;;;;;;10.90;100.00;93325.34;5023467;28;20538;-65
2023/07/27 05:20:52;;;;;;;4.50;4.07;;;;;;;10.96;100.00;93313.19;5019721;28;20503;-66
2023/07/27 05:23:17;;;;;;;4.18;3.88;;;;;;;10.95;100.00;93327.38;5020542;28;20026;-65
2023/07/27 05:25:43;;;;;;;4.97;4.50;;;;;;;10.93;100.00;93335.47;5018422;28;20029;-65
2023/07/27 05:28:08;;;;;;;4.10;3.75;;;;;;;10.97;100.00;93346.41;5024428;28;20125;-65
2023/07/27 05:30:34;;;;;;;5.15;4.38;;;;;;;11.02;100.00;93339.50;5020222;28;20052;-65
2023/07/27 05:32:59;;;;;;;4.45;4.03;;;;;;;11.13;100.00;93330.19;5021638;28;20033;-66
2023/07/27 05:35:24;;;;;;;4.45;4.05;;;;;;;11.26;100.00;93321.47;5022745;28;20052;-65
2023/07/27 05:37:50;;;;;;;4.35;3.78;;;;;;;11.38;100.00;93313.75;5022897;28;20405;-65
2023/07/27 05:40:16;;;;;;;3.78;3.55;;;;;;;11.57;100.00;93298.94;5019378;28;20029;-65
2023/07/27 05:42:42;;;;;;;5.72;4.03;;;;;;;11.70;100.00;93270.91;5022812;28;20022;-66
2023/07/27 05:45:08;;;;;;;5.78;3.95;;;;;;;11.81;100.00;93269.44;5019024;28;21018;-65
2023/07/27 05:47:34;;;;;;;4.40;4.05;;;;;;;11.88;100.00;93299.25;5022639;28;20395;-66
2023/07/27 05:49:59;;;;;;;5.97;3.10;;;;;;;11.91;100.00;93322.56;5022291;28;20044;-65
2023/07/27 05:52:25;;;;;;;3.50;3.20;;;;;;;12.04;100.00;93325.16;5019286;28;20037;-65
2023/07/27 05:54:50;;;;;;;4.95;4.22;;;;;;;12.16;100.00;93327.16;5015755;28;20056;-65
2023/07/27 05:57:16;;;;;;;4.07;3.78;;;;;;;12.27;100.00;93342.31;5021836;28;20028;-65
2023/07/27 05:59:41;;;;;;;4.65;3.60;;;;;;;12.41;100.00;93335.16;5020846;28;20029;-65
2023/07/27 06:02:07;;;;;;;3.40;3.20;;;;;;;12.55;100.00;93341.16;5018160;28;20032;-66
2023/07/27 06:04:32;;;;;;;3.60;3.30;;;;;;;12.73;100.00;93360.75;5019432;28;20029;-65
2023/07/27 06:06:58;;;;;;;5.32;3.88;;;;;;;12.88;100.00;93390.31;5020153;28;20040;-66
2023/07/27 06:09:24;;;;;;;4.10;3.80;;;;;;;12.97;100.00;93427.03;5026650;28;20049;-65
2023/07/27 06:11:51;;;;;;;4.53;4.13;;;;;;;12.97;100.00;93454.25;5023573;28;20096;-65
2023/07/27 06:14:16;;;;;;;4.78;3.42;;;;;;;13.10;100.00;93463.13;5040949;28;20030;-65
2023/07/27 06:16:42;;;;;;;4.25;3.42;;;;;;;13.24;100.00;93475.22;5010283;28;20038;-65
2023/07/27 06:19:07;;;;;;;6.07;3.42;;;;;;;13.38;100.00;93486.53;5016000;28;20030;-65
2023/07/27 06:21:33;;;;;;;3.65;3.45;;;;;;;13.53;100.00;93488.06;5010152;28;20037;-66
2023/07/27 06:23:58;;;;;;;3.20;3.00;;;;;;;13.67;100.00;93494.91;5018576;28;20029;-65
2023/07/27 06:26:24;;;;;;;3.08;2.88;;;;;;;13.81;100.00;93521.22;5013810;28;20049;-66
2023/07/27 06:28:49;;;;;;;3.60;3.30;;;;;;;13.96;100.00;93532.31;5018317;28;20040;-66
2023/07/27 06:31:14;;;;;;;3.40;3.13;;;;;;;14.14;100.00;93536.03;5018568;28;20033;-65
2023/07/27 06:33:40;;;;;;;3.63;3.35;;;;;;;14.25;100.00;93532.66;5013122;28;20033;-65
2023/07/27 06:36:11;;;;;;;3.83;3.53;;;;;;;14.33;100.00;93540.34;5020855;28;20034;-66
2023/07/27 06:38:38;;;;;;;8.50;3.85;;;;;;;14.51;100.00;93552.00;5012291;28;20021;-65
2023/07/27 06:41:03;;;;;;;3.58;3.28;;;;;;;14.65;100.00;93559.78;5019698;28;20021;-66
2023/07/27 06:43:29;;;;;;;4.50;4.10;;;;;;;14.79;100.00;93563.94;5015208;28;20021;-66
2023/07/27 06:45:54;;;;;;;5.03;4.28;;;;;;;14.88;100.00;93562.63;5021877;28;20026;-66
2023/07/27 06:48:20;;;;;;;4.28;3.90;;;;;;;15.02;100.00;93565.13;5017809;28;20696;-66
2023/07/27 06:50:45;;;;;;;4.10;3.38;;;;;;;15.16;100.00;93557.81;5019764;28;20038;-66
2023/07/27 06:53:10;;;;;;;4.68;4.28;;;;;;;15.42;100.00;93547.91;5019672;28;20065;-66
2023/07/27 06:55:36;;;;;;;5.93;5.35;;;;;;;15.66;100.00;93546.16;5024732;28;20029;-66
2023/07/27 06:58:01;;;;;;;5.78;5.38;;;;;;;15.82;100.00;93544.69;5039894;28;20034;-65
2023/07/27 07:00:27;;;;;;;6.38;4.93;;;;;;;16.07;100.00;93545.59;5019406;28;20145;-66
2023/07/27 07:02:53;;;;;;;2.90;2.78;;;;;;;16.28;100.00;93529.13;5017660;28;20041;-66
2023/07/27 07:05:18;;;;;;;3.25;3.05;;;;;;;16.64;100.00;93515.00;5021065;28;20026;-66
2023/07/27 07:07:43;;;;;;;3.08;2.88;;;;;;;16.71;100.00;93536.94;5020866;28;20117;-66
2023/07/27 07:10:09;;;;;;;3.13;2.90;;;;;;;16.97;100.00;93564.06;5033109;28;20037;-66
2023/07/27 07:12:35;;;;;;;9.23;3.95;;;;;;;17.21;100.00;93561.38;5019517;28;20509;-66
2023/07/27 07:15:02;;;;;;;6.07;3.70;;;;;;;17.49;100.00;93565.09;5046034;28;20087;-66
2023/07/27 07:17:27;;;;;;;4.13;2.95;;;;;;;17.87;100.00;93545.03;5021835;28;20029;-63
2023/07/27 07:19:53;;;;;;;3.88;3.50;;;;;;;18.03;100.00;93567.41;5021018;28;20032;-66
2023/07/27 07:22:19;;;;;;;3.20;3.00;;;;;;;18.44;100.00;93596.56;5019297;28;20033;-63
2023/07/27 07:24:44;;;;;;;3.60;3.30;;;;;;;18.66;100.00;93603.81;5016499;28;20038;-64
2023/07/27 07:27:09;;;;;;;5.47;3.55;;;;;;;19.01;100.00;93624.09;5018059;28;20466;-64
2023/07/27 07:29:35;;;;;;;4.53;2.97;;;;;;;19.18;100.00;93638.22;5019332;28;20096;-64
2023/07/27 07:32:01;;;;;;;3.20;2.72;;;;;;;19.55;100.00;93654.66;5044418;28;20094;-64
2023/07/27 07:34:26;;;;;;;3.05;2.65;;;;;;;19.60;100.00;93692.91;5022393;28;20026;-64
2023/07/27 07:36:52;;;;;;;2.88;2.67;;;;;;;19.27;100.00;93750.63;5021040;28;20030;-64
2023/07/27 07:39:18;;;;;;;3.13;2.92;;;;;;;19.36;100.00;93787.56;5019410;28;20026;-64
2023/07/27 07:41:43;;;;;;;2.70;2.50;;;;;;;19.85;100.00;93720.19;5020396;28;20033;-64
2023/07/27 07:44:08;;;;;;;3.60;3.30;;;;;;;20.17;100.00;93685.59;5043462;28;20034;-64
2023/07/27 07:46:34;;;;;;;2.80;2.30;;;;;;;20.59;100.00;93657.38;5046126;28;20041;-64
2023/07/27 07:49:00;;;;;;;5.13;3.17;;;;;;;20.82;100.00;93674.16;5003022;28;20028;-64
2023/07/27 07:51:25;;;;;;;3.22;2.95;;;;;;;20.94;100.00;93718.66;5024296;28;20060;-64
2023/07/27 07:53:51;;;;;;;3.50;3.20;;;;;;;21.16;100.00;93695.28;5045746;28;20482;-64
2023/07/27 07:56:17;;;;;;;3.60;3.30;;;;;;;21.14;100.00;93694.75;5021276;28;20021;-64
2023/07/27 07:58:46;;;;;;;3.20;2.90;;;;;;;21.55;100.00;93723.63;5022837;28;20030;-64
2023/07/27 08:01:11;;;;;;;2.70;2.50;;;;;;;21.34;100.00;93770.88;5027111;28;20117;-64
2023/07/27 08:03:36;;;;;;;5.57;4.72;;;;;;;21.15;100.00;93781.97;5023959;28;20053;-64
2023/07/27 08:06:02;;;;;;;3.30;3.00;;;;;;;20.93;100.00;93806.09;5023956;28;20428;-64
2023/07/27 08:08:27;;;;;;;2.67;2.47;;;;;;;21.17;100.00;93777.16;5024276;28;20101;-64
2023/07/27 08:10:53;;;;;;;2.50;2.40;;;;;;;21.79;100.00;93786.72;5024198;28;20030;-64
2023/07/27 08:13:18;;;;;;;2.63;2.42;;;;;;;21.88;100.00;93844.91;5023073;28;20033;-64
2023/07/27 08:15:51;;;;;;;3.50;2.28;;;;;;;21.69;100.00;93836.44;5008518;28;20029;-64
2023/07/27 08:18:17;;;;;;;6.05;3.97;;;;;;;21.51;100.00;93845.66;5022303;28;20026;-64
2023/07/27 08:20:42;;;;;;;3.80;3.50;;;;;;;21.52;100.00;93812.47;5024102;28;20029;-65
2023/07/27 08:23:08;;;;;;;2.63;2.42;;;;;;;21.62;100.00;93817.09;5019527;28;20044;-66
2023/07/27 08:25:37;;;;;;;4.05;2.80;;;;;;;21.66;100.00;93823.59;5045970;28;20053;-64
2023/07/27 08:28:02;;;;;;;2.85;2.65;;;;;;;21.85;100.00;93828.53;5020522;28;20049;-64
2023/07/27 08:30:28;;;;;;;6.25;3.85;;;;;;;22.18;100.00;93772.97;5021508;28;20035;-64
2023/07/27 08:32:54;;;;;;;3.90;2.58;;;;;;;22.12;100.00;93832.97;5022654;28;20026;-64
2023/07/27 08:35:20;;;;;;;3.00;2.72;;;;;;;22.59;100.00;93781.19;5030972;28;20037;-64
2023/07/27 08:37:45;;;;;;;5.03;2.80;;;;;;;22.65;100.00;93746.31;5024214;28;20407;-64
2023/07/27 08:40:11;;;;;;;2.90;2.70;;;;;;;22.67;100.00;93800.53;5016280;28;20034;-65
2023/07/27 08:42:37;;;;;;;3.03;2.72;;;;;;;23.26;100.00;93844.91;5023209;28;20030;-64
2023/07/27 08:45:03;;;;;;;4.35;3.50;;;;;;;23.77;100.00;93858.63;5020165;28;20398;-64
2023/07/27 08:47:28;;;;;;;3.03;2.65;;;;;;;23.87;100.00;93815.63;5021493;28;20568;-65
2023/07/27 08:49:55;;;;;;;2.78;2.50;;;;;;;24.06;100.00;93829.31;5024783;28;20148;-65
2023/07/27 08:52:24;;;;;;;4.85;2.55;;;;;;;24.30;100.00;93869.03;5019301;28;20450;-65
2023/07/27 08:54:49;;;;;;;2.85;2.65;;;;;;;24.84;100.00;93926.72;5022801;28;20037;-64
2023/07/27 08:57:15;;;;;;;3.13;2.70;;;;;;;24.85;100.00;93936.41;5021959;28;20030;-65
2023/07/27 08:59:42;;;;;;;3.45;2.70;;;;;;;24.88;100.00;93957.41;5020806;28;20021;-65
2023/07/27 09:02:07;;;;;;;2.60;2.40;;;;;;;24.83;100.00;93927.78;5020613;28;20026;-65
2023/07/27 09:04:32;;;;;;;2.70;2.50;;;;;;;24.94;100.00;93911.63;5020452;28;20060;-65
2023/07/27 09:07:06;;;;;;;2.53;2.30;;;;;;;24.63;100.00;93936.72;5022288;28;20022;-65
2023/07/27 09:09:32;;;;;;;3.65;2.63;;;;;;;24.58;100.00;93917.91;5022805;28;20032;-65
2023/07/27 09:11:57;;;;;;;2.97;2.47;;;;;;;24.61;100.00;93911.97;5022222;28;20474;-65
2023/07/27 09:14:23;;;;;;;2.47;2.28;;;;;;;24.76;100.00;93975.72;5025301;28;20018;-65
2023/07/27 09:16:50;;;;;;;2.60;2.47;;;;;;;24.66;100.00;94076.06;5020920;28;20033;-64
2023/07/27 09:19:20;;;;;;;2.20;2.10;;;;;;;25.07;100.00;93562.97;5023700;28;20513;-65
2023/07/27 09:21:51;;;;;;;3.72;2.50;;;;;;;25.38;100.00;93523.06;5024752;28;20021;-65
2023/07/27 09:24:17;;;;;;;2.60;2.40;;;;;;;25.39;100.00;93478.88;5021022;28;20048;-65
2023/07/27 09:26:50;;;;;;;2.50;2.35;;;;;;;25.68;100.00;93397.16;5023386;28;20057;-65
2023/07/27 09:29:18;;;;;;;4.00;2.65;;;;;;;25.70;100.00;93434.59;5017531;28;20021;-65
2023/07/27 09:31:48;;;;;;;2.63;2.42;;;;;;;25.50;100.00;93473.38;5028481;28;20048;-65
2023/07/27 09:34:14;;;;;;;2.67;2.47;;;;;;;25.58;100.00;93432.34;5023743;28;20573;-65
2023/07/27 09:36:40;;;;;;;3.40;2.78;;;;;;;25.27;100.00;93430.03;5021934;28;20026;-65
2023/07/27 09:39:07;;;;;;;2.58;2.38;;;;;;;25.59;100.00;93444.72;5025386;28;20053;-65
2023/07/27 09:41:33;;;;;;;3.40;2.85;;;;;;;25.45;100.00;93445.41;5024372;28;20033;-65
2023/07/27 09:43:58;;;;;;;2.60;2.40;;;;;;;25.30;100.00;93400.63;5025246;28;20387;-65
2023/07/27 09:46:24;;;;;;;2.63;2.42;;;;;;;25.97;100.00;93406.91;5021548;28;20071;-65
2023/07/27 09:48:51;;;;;;;2.15;2.03;;;;;;;26.19;100.00;93510.66;5024495;28;20088;-65
2023/07/27 09:51:17;;;;;;;2.65;2.38;;;;;;;26.06;100.00;93481.75;5021102;28;20979;-65
2023/07/27 09:53:44;;;;;;;2.42;2.22;;;;;;;26.28;100.00;93521.59;5026600;28;20036;-65
2023/07/27 09:56:11;;;;;;;2.10;2.00;;;;;;;26.37;100.00;93498.25;5021915;28;20048;-65
2023/07/27 09:58:39;;;;;;;2.15;2.05;;;;;;;26.48;100.00;93565.50;5022206;28;20028;-65
2023/07/27 10:01:04;;;;;;;2.53;2.33;;;;;;;26.75;100.00;93578.28;5018125;28;20410;-65
2023/07/27 10:03:30;;;;;;;2.42;2.22;;;;;;;26.38;100.00;93623.94;5027125;28;20026;-65
2023/07/27 10:05:56;;;;;;;2.40;2.28;;;;;;;26.31;100.00;93573.03;5022340;28;20132;-65
2023/07/27 10:08:21;;;;;;;2.75;2.30;;;;;;;26.32;100.00;93565.78;5021013;28;20462;-65
2023/07/27 10:11:00;;;;;;;3.78;2.35;;;;;;;26.79;100.00;93592.78;5021898;28;20064;-66
2023/07/27 10:13:25;;;;;;;2.30;2.20;;;;;;;26.90;100.00;93571.06;5022936;28;20029;-65
2023/07/27 10:15:56;;;;;;;2.50;2.30;;;;;;;26.73;100.00;93613.66;5026973;28;20059;-65
2023/07/27 10:18:26;;;;;;;2.33;2.13;;;;;;;26.70;100.00;93536.00;5024426;28;20284;-65
2023/07/27 10:20:54;;;;;;;2.60;2.15;;;;;;;26.25;100.00;93541.88;5022539;28;20022;-66
2023/07/27 10:23:27;;;;;;;1.98;1.88;;;;;;;26.75;100.00;93529.72;5024853;28;20052;-65
2023/07/27 10:25:55;;;;;;;2.55;2.35;;;;;;;27.09;100.00;93554.78;5021970;28;20021;-65
2023/07/27 10:28:48;;;;;;;2.20;2.10;;;;;;;27.39;100.00;93547.19;5017931;28;20050;-65
2023/07/27 10:31:13;;;;;;;2.20;2.10;;;;;;;27.51;100.00;93554.78;5018923;28;20457;-65
2023/07/27 10:33:51;;;;;;;2.90;2.40;;;;;;;27.21;100.00;93559.69;5036903;28;20108;-65
2023/07/27 10:36:19;;;;;;;2.25;2.15;;;;;;;26.67;100.00;93539.28;5023737;28;20498;-65
2023/07/27 10:38:54;;;;;;;2.10;2.00;;;;;;;26.97;100.00;93568.78;5014382;28;20026;-65
2023/07/27 10:41:22;;;;;;;4.40;2.58;;;;;;;26.75;100.00;93613.38;5014849;28;20096;-65
2023/07/27 10:44:06;;;;;;;2.08;1.98;;;;;;;26.84;100.00;93573.81;5018670;28;20513;-65
2023/07/27 10:46:31;;;;;;;2.40;2.20;;;;;;;26.90;100.00;93670.94;5017949;28;20061;-65
2023/07/27 10:48:58;;;;;;;2.40;2.20;;;;;;;27.06;100.00;93642.56;5023499;28;20114;-65
2023/07/27 10:51:27;;;;;;;2.63;2.30;;;;;;;26.57;100.00;93642.00;5021654;28;20112;-66
2023/07/27 10:53:53;;;;;;;2.35;2.15;;;;;;;26.67;100.00;93659.94;5021901;28;20215;-66
2023/07/27 10:56:19;;;;;;;2.50;2.30;;;;;;;26.84;100.00;93707.97;5023241;28;20067;-65
2023/07/27 10:58:45;;;;;;;2.60;2.40;;;;;;;26.99;100.00;93653.78;5021720;28;20108;-65
2023/07/27 11:01:10;;;;;;;2.42;2.20;;;;;;;27.56;100.00;93663.59;5019784;28;20156;-66
2023/07/27 11:03:37;;;;;;;2.28;2.08;;;;;;;27.95;100.00;93742.59;5022692;28;20025;-66
2023/07/27 11:06:07;;;;;;;2.28;2.17;;;;;;;27.60;100.00;93656.50;5020372;28;20025;-65
2023/07/27 11:08:37;;;;;;;2.50;2.30;;;;;;;28.10;100.00;93735.31;5021103;28;20443;-65
2023/07/27 11:11:19;;;;;;;2.45;2.25;;;;;;;27.90;100.00;93774.38;5016848;28;20127;-66
2023/07/27 11:13:45;;;;;;;2.40;2.15;;;;;;;27.90;100.00;93753.53;5023056;28;20026;-66
2023/07/27 11:16:13;;;;;;;2.38;2.17;;;;;;;28.03;100.00;93750.03;5016324;28;20044;-66
2023/07/27 11:18:40;;;;;;;2.50;2.40;;;;;;;27.82;100.00;93673.91;5024318;28;20029;-65
2023/07/27 11:21:07;;;;;;;2.40;2.20;;;;;;;27.93;100.00;93690.75;5041831;28;20547;-66
2023/07/27 11:23:40;;;;;;;2.42;2.10;;;;;;;28.19;100.00;93638.88;5021305;28;20030;-66